createdAt,value
2022-09-18T00:04:44.228Z,98934.55
2022-09-18T00:09:47.743Z,98939.73
2022-09-18T00:14:50.744Z,98940.05
2022-09-18T00:19:54.056Z,98934.50
2022-09-18T00:24:57.571Z,98926.52
2022-09-18T00:30:00.575Z,98930.02
2022-09-18T00:35:04.505Z,98929.30
2022-09-18T00:40:08.182Z,98936.66
2022-09-18T00:45:11.940Z,98937.55
2022-09-18T00:50:20.678Z,98934.45
2022-09-18T00:55:33.307Z,98934.18
2022-09-18T01:00:36.578Z,98929.30
2022-09-18T01:06:02.567Z,98925.59
2022-09-18T01:11:50.720Z,98924.95
2022-09-18T01:17:26.085Z,98922.39
2022-09-18T01:22:47.005Z,98921.41
2022-09-18T01:27:59.124Z,98926.40
2022-09-18T01:33:18.001Z,98928.95
2022-09-18T01:38:23.661Z,98933.24
2022-09-18T01:43:30.046Z,98928.34
2022-09-18T01:48:39.194Z,98928.77
2022-09-18T01:53:47.110Z,98932.36
2022-09-18T01:58:52.807Z,98931.23
2022-09-18T02:04:02.642Z,98925.86
2022-09-18T02:09:08.323Z,98927.77
2022-09-18T02:14:17.147Z,98925.56
2022-09-18T02:19:24.965Z,98925.77
2022-09-18T02:24:33.394Z,98923.31
2022-09-18T02:29:37.375Z,98920.38
2022-09-18T02:34:40.527Z,98916.43
2022-09-18T02:40:10.525Z,98912.48
2022-09-18T02:45:44.083Z,98908.16
2022-09-18T02:51:04.790Z,98909.47
2022-09-18T02:56:18.967Z,98907.67
2022-09-18T03:01:25.653Z,98909.67
2022-09-18T03:06:28.657Z,98917.28
2022-09-18T03:11:31.763Z,98913.89
2022-09-18T03:16:34.934Z,98914.44
2022-09-18T03:21:38.079Z,98919.14
2022-09-18T03:26:41.183Z,98918.42
2022-09-18T03:31:44.572Z,98925.41
2022-09-18T03:36:47.803Z,98936.84
2022-09-18T03:41:51.012Z,98938.63
2022-09-18T03:46:54.208Z,98937.62
2022-09-18T03:51:57.427Z,98941.05
2022-09-18T03:57:00.635Z,98939.39
2022-09-18T04:02:03.847Z,98935.38
2022-09-18T04:07:08.077Z,98941.38
2022-09-18T04:12:11.696Z,98935.64
2022-09-18T04:17:15.209Z,98933.20
2022-09-18T04:22:19.238Z,98930.97
2022-09-18T04:27:22.341Z,98931.91
2022-09-18T04:32:25.458Z,98927.41
2022-09-18T04:37:28.527Z,98928.23
2022-09-18T04:42:32.807Z,98926.03
2022-09-18T04:47:35.952Z,98931.66
2022-09-18T04:52:39.202Z,98929.63
2022-09-18T04:57:42.373Z,98931.91
2022-09-18T05:02:45.380Z,98932.04
2022-09-18T05:07:48.548Z,98936.68
2022-09-18T05:12:51.725Z,98937.23
2022-09-18T05:18:02.271Z,98936.89
2022-09-18T05:23:07.340Z,98944.95
2022-09-18T05:28:13.534Z,98952.61
2022-09-18T05:33:16.856Z,98951.95
2022-09-18T05:38:20.130Z,98948.88
2022-09-18T05:43:23.439Z,98948.49
2022-09-18T05:48:26.658Z,98939.79
2022-09-18T05:53:29.884Z,98937.02
2022-09-18T05:58:33.194Z,98932.85
2022-09-18T06:03:36.388Z,98928.87
2022-09-18T06:08:40.125Z,98938.48
2022-09-18T06:13:44.640Z,98937.58
2022-09-18T06:18:47.666Z,98946.69
2022-09-18T06:23:50.768Z,98952.08
2022-09-18T06:28:53.874Z,98950.96
2022-09-18T06:33:56.981Z,98956.42
2022-09-18T06:39:00.146Z,98954.46
2022-09-18T06:44:03.500Z,98949.48
2022-09-18T06:49:07.016Z,98953.45
2022-09-18T06:54:10.497Z,98957.88
2022-09-18T06:59:14.315Z,98959.11
2022-09-18T07:04:18.351Z,98961.21
2022-09-18T07:09:21.544Z,98966.86
2022-09-18T07:14:24.556Z,98966.66
2022-09-18T07:19:27.980Z,98967.05
2022-09-18T07:24:31.312Z,98967.80
2022-09-18T07:29:34.354Z,98966.66
2022-09-18T07:34:37.547Z,98957.27
2022-09-18T07:39:40.725Z,98960.00
2022-09-18T07:44:44.239Z,98962.27
2022-09-18T07:49:47.631Z,98962.41
2022-09-18T07:54:51.910Z,98957.19
2022-09-18T07:59:55.117Z,98956.39
2022-09-18T08:04:58.366Z,98956.89
2022-09-18T08:10:04.433Z,98952.10
2022-09-18T08:15:11.870Z,98956.95
2022-09-18T08:20:15.858Z,98962.48
2022-09-18T08:25:21.563Z,98961.75
2022-09-18T08:30:25.453Z,98962.20
2022-09-18T08:35:32.442Z,98973.64
2022-09-18T08:40:40.247Z,98972.88
2022-09-18T08:46:05.779Z,98972.88
2022-09-18T08:51:35.885Z,98971.69
2022-09-18T08:56:46.440Z,98967.74
2022-09-18T09:02:20.774Z,98970.64
2022-09-18T09:07:59.044Z,98968.23
2022-09-18T09:13:31.131Z,98968.14
2022-09-18T09:18:42.268Z,98972.32
2022-09-18T09:24:32.834Z,98975.42
2022-09-18T09:29:42.252Z,98979.05
2022-09-18T09:34:53.708Z,98987.31
2022-09-18T09:40:11.020Z,98996.43
2022-09-18T09:45:27.736Z,99000.47
2022-09-18T09:50:43.689Z,99003.77
2022-09-18T09:55:58.888Z,99005.55
2022-09-18T10:01:19.906Z,99009.06
2022-09-18T10:06:54.043Z,99012.73
2022-09-18T10:12:04.179Z,99014.77
2022-09-18T10:17:13.260Z,99018.29
2022-09-18T10:22:23.483Z,99026.30
2022-09-18T10:27:28.322Z,99032.48
2022-09-18T10:32:42.038Z,99034.01
2022-09-18T10:37:45.940Z,99034.15
2022-09-18T10:42:55.801Z,99038.38
2022-09-18T10:48:08.065Z,99039.20
2022-09-18T10:53:39.069Z,99040.96
2022-09-18T10:58:45.366Z,99040.50
2022-09-18T11:04:07.326Z,99046.05
2022-09-18T11:09:12.678Z,99049.34
2022-09-18T11:14:25.705Z,99048.80
2022-09-18T11:19:34.463Z,99051.75
2022-09-18T11:24:47.185Z,99048.75
2022-09-18T11:29:53.592Z,99046.18
2022-09-18T11:35:08.441Z,99045.63
2022-09-18T11:40:24.750Z,99046.63
2022-09-18T11:45:42.494Z,99040.57
2022-09-18T11:50:48.386Z,99038.04
2022-09-18T11:56:11.256Z,99035.09
2022-09-18T12:01:26.277Z,99032.37
2022-09-18T12:06:43.263Z,99033.61
2022-09-18T12:12:20.015Z,99032.15
2022-09-18T12:17:37.437Z,99037.59
2022-09-18T12:22:53.041Z,99039.25
2022-09-18T12:28:11.264Z,99037.33
2022-09-18T12:33:34.335Z,99031.02
2022-09-18T12:38:58.297Z,99025.34
2022-09-18T12:44:45.863Z,99022.27
2022-09-18T12:50:16.831Z,99024.84
2022-09-18T12:56:00.533Z,99023.09
2022-09-18T13:01:38.085Z,99028.25
2022-09-18T13:06:53.609Z,99033.66
2022-09-18T13:12:20.926Z,99036.53
2022-09-18T13:17:34.400Z,99040.52
2022-09-18T13:22:40.932Z,99038.79
2022-09-18T13:27:46.834Z,99041.42
2022-09-18T13:32:51.072Z,99043.73
2022-09-18T13:38:17.025Z,99048.52
2022-09-18T13:43:32.413Z,99051.10
2022-09-18T13:48:46.477Z,99052.40
2022-09-18T13:54:17.858Z,99051.02
2022-09-18T13:59:24.223Z,99047.91
2022-09-18T14:04:40.366Z,99051.48
2022-09-18T14:09:50.578Z,99052.75
2022-09-18T14:15:11.623Z,99049.77
2022-09-18T14:20:22.724Z,99047.23
2022-09-18T14:25:47.251Z,99044.63
2022-09-18T14:31:15.975Z,99046.70
2022-09-18T14:36:22.912Z,99044.52
2022-09-18T14:41:32.828Z,99042.62
2022-09-18T14:46:53.450Z,99042.02
2022-09-18T14:52:03.970Z,99041.98
2022-09-18T14:57:13.556Z,99042.48
2022-09-18T15:02:28.163Z,99049.55
2022-09-18T15:07:32.445Z,99040.20
2022-09-18T15:12:38.118Z,99035.00
2022-09-18T15:17:55.050Z,99036.74
2022-09-18T15:22:59.183Z,99044.38
2022-09-18T15:28:07.311Z,99047.08
2022-09-18T15:33:20.298Z,99045.66
2022-09-18T15:38:38.526Z,99043.45
2022-09-18T15:43:43.853Z,99044.89
2022-09-18T15:48:51.491Z,99049.69
2022-09-18T15:54:14.053Z,99043.30
2022-09-18T15:59:27.501Z,99047.18
2022-09-18T16:04:41.666Z,99046.90
2022-09-18T16:09:50.319Z,99053.91
2022-09-18T16:15:18.473Z,99054.32
2022-09-18T16:20:26.826Z,99056.47
2022-09-18T16:25:36.332Z,99058.63
2022-09-18T16:30:44.899Z,99059.55
2022-09-18T16:35:58.256Z,99055.64
2022-09-18T16:41:07.695Z,99053.79
2022-09-18T16:46:14.691Z,99067.40
2022-09-18T16:51:19.262Z,99074.42
2022-09-18T16:56:53.862Z,99075.88
2022-09-18T17:02:04.521Z,99079.26
2022-09-18T17:07:08.997Z,99080.63
2022-09-18T17:12:14.906Z,99077.80
2022-09-18T17:17:22.605Z,99082.56
2022-09-18T17:22:26.879Z,99083.14
2022-09-18T17:27:31.038Z,99085.28
2022-09-18T17:32:41.245Z,99084.00
2022-09-18T17:37:48.431Z,99088.23
2022-09-18T17:42:53.589Z,99083.20
2022-09-18T17:47:59.510Z,99080.10
2022-09-18T17:53:05.753Z,99077.40
2022-09-18T17:58:12.109Z,99077.06
2022-09-18T18:03:17.179Z,99074.15
2022-09-18T18:08:22.145Z,99081.61
2022-09-18T18:13:27.343Z,99082.05
2022-09-18T18:18:34.551Z,99083.11
2022-09-18T18:23:40.679Z,99087.96
2022-09-18T18:28:47.431Z,99089.97
2022-09-18T18:33:58.498Z,99095.46
2022-09-18T18:39:05.996Z,99101.67
2022-09-18T18:44:12.199Z,99103.02
2022-09-18T18:49:18.545Z,99105.79
2022-09-18T18:54:23.674Z,99107.70
2022-09-18T18:59:29.372Z,99110.29
2022-09-18T19:04:39.936Z,99104.84
2022-09-18T19:09:44.173Z,99100.73
2022-09-18T19:14:48.813Z,99098.11
2022-09-18T19:19:53.538Z,99099.01
2022-09-18T19:24:58.780Z,99101.27
2022-09-18T19:30:28.571Z,99098.11
2022-09-18T19:35:36.988Z,99100.29
2022-09-18T19:40:43.660Z,99102.73
2022-09-18T19:45:51.013Z,99102.55
2022-09-18T19:50:56.599Z,99101.58
2022-09-18T19:56:00.749Z,99100.86
2022-09-18T20:01:12.003Z,99098.23
2022-09-18T20:06:16.125Z,99102.39
2022-09-18T20:11:19.855Z,99102.85
2022-09-18T20:16:23.212Z,99100.26
2022-09-18T20:21:27.076Z,99103.12
2022-09-18T20:26:31.155Z,99104.80
2022-09-18T20:31:37.279Z,99105.28
2022-09-18T20:36:40.481Z,99106.45
2022-09-18T20:41:44.119Z,99105.46
2022-09-18T20:46:51.012Z,99105.45
2022-09-18T20:51:55.103Z,99106.95
2022-09-18T20:57:00.940Z,99112.58
2022-09-18T21:02:08.266Z,99110.13
2022-09-18T21:07:11.854Z,99112.69
2022-09-18T21:12:16.194Z,99109.52
2022-09-18T21:17:19.704Z,99101.80
2022-09-18T21:22:23.527Z,99104.11
2022-09-18T21:27:26.897Z,99103.25
2022-09-18T21:32:31.205Z,99101.91
2022-09-18T21:37:34.364Z,99102.29
2022-09-18T21:42:38.713Z,99100.32
2022-09-18T21:47:42.135Z,99101.44
2022-09-18T21:52:45.394Z,99109.39
2022-09-18T21:57:48.298Z,99105.56
2022-09-18T22:02:55.031Z,99100.77
2022-09-18T22:07:58.549Z,99102.48
2022-09-18T22:13:01.852Z,99099.98
2022-09-18T22:18:05.575Z,99100.31
2022-09-18T22:23:08.804Z,99100.70
2022-09-18T22:28:12.092Z,99101.35
2022-09-18T22:33:15.431Z,99101.50
2022-09-18T22:38:18.713Z,99110.33
2022-09-18T22:43:22.325Z,99107.86
2022-09-18T22:48:25.342Z,99106.23
2022-09-18T22:53:28.645Z,99107.93
2022-09-18T22:58:32.264Z,99107.34
2022-09-18T23:03:37.006Z,99103.13
2022-09-18T23:08:40.829Z,99099.25
2022-09-18T23:13:57.895Z,99105.13
2022-09-18T23:19:04.902Z,99109.41
2022-09-18T23:24:10.867Z,99111.61
2022-09-18T23:29:17.699Z,99114.55
2022-09-18T23:34:27.653Z,99109.44
2022-09-18T23:39:34.042Z,99105.92
2022-09-18T23:44:37.355Z,99106.09
2022-09-18T23:49:40.219Z,99108.73
2022-09-18T23:54:43.185Z,99108.26
2022-09-18T23:59:48.767Z,99108.65
